sensor_id;sensor_type;location;lat;lon;timestamp;P1;durP1;ratioP1;P2;durP2;ratioP2
31043;SDS011;17710;52.520;13.352;2024-01-06T00:00:08;63.58;;;31.27;;
31043;SDS011;17710;52.520;13.352;2024-01-06T00:02:37;66.05;;;32.20;;
31043;SDS011;17710;52.520;13.352;2024-01-06T00:05:03;65.97;;;30.42;;
31043;SDS011;17710;52.520;13.352;2024-01-06T00:07:30;70.15;;;31.35;;
31043;SDS011;17710;52.520;13.352;2024-01-06T00:09:57;68.20;;;30.52;;
31043;SDS011;17710;52.520;13.352;2024-01-06T00:12:24;69.95;;;31.00;;
31043;SDS011;17710;52.520;13.352;2024-01-06T00:15:01;64.45;;;30.60;;
31043;SDS011;17710;52.520;13.352;2024-01-06T00:17:27;63.73;;;30.07;;
31043;SDS011;17710;52.520;13.352;2024-01-06T00:19:55;68.57;;;30.85;;
31043;SDS011;17710;52.520;13.352;2024-01-06T00:22:29;51.43;;;23.60;;
31043;SDS011;17710;52.520;13.352;2024-01-06T00:24:56;67.22;;;30.63;;
31043;SDS011;17710;52.520;13.352;2024-01-06T00:27:23;64.20;;;29.83;;
31043;SDS011;17710;52.520;13.352;2024-01-06T00:29:52;64.25;;;30.17;;
31043;SDS011;17710;52.520;13.352;2024-01-06T00:32:19;66.57;;;29.08;;
31043;SDS011;17710;52.520;13.352;2024-01-06T00:34:45;64.60;;;30.75;;
31043;SDS011;17710;52.520;13.352;2024-01-06T00:37:13;62.47;;;29.10;;
31043;SDS011;17710;52.520;13.352;2024-01-06T00:39:40;60.92;;;28.80;;
31043;SDS011;17710;52.520;13.352;2024-01-06T00:42:06;64.03;;;28.27;;
31043;SDS011;17710;52.520;13.352;2024-01-06T00:44:33;59.55;;;28.00;;
31043;SDS011;17710;52.520;13.352;2024-01-06T00:47:00;65.00;;;28.73;;
31043;SDS011;17710;52.520;13.352;2024-01-06T00:49:27;58.80;;;28.33;;
31043;SDS011;17710;52.520;13.352;2024-01-06T00:51:53;63.55;;;28.38;;
31043;SDS011;17710;52.520;13.352;2024-01-06T00:54:21;58.95;;;27.95;;
31043;SDS011;17710;52.520;13.352;2024-01-06T00:56:47;62.40;;;27.15;;
31043;SDS011;17710;52.520;13.352;2024-01-06T00:59:14;64.53;;;28.27;;
31043;SDS011;17710;52.520;13.352;2024-01-06T01:01:40;61.88;;;28.23;;
31043;SDS011;17710;52.520;13.352;2024-01-06T01:04:06;56.70;;;26.17;;
31043;SDS011;17710;52.520;13.352;2024-01-06T01:06:35;59.17;;;26.65;;
31043;SDS011;17710;52.520;13.352;2024-01-06T01:09:03;58.20;;;27.25;;
31043;SDS011;17710;52.520;13.352;2024-01-06T01:11:30;57.47;;;27.17;;
31043;SDS011;17710;52.520;13.352;2024-01-06T01:13:57;56.75;;;27.38;;
31043;SDS011;17710;52.520;13.352;2024-01-06T01:16:24;60.47;;;27.73;;
31043;SDS011;17710;52.520;13.352;2024-01-06T01:18:51;62.25;;;26.92;;
31043;SDS011;17710;52.520;13.352;2024-01-06T01:21:18;62.35;;;28.50;;
31043;SDS011;17710;52.520;13.352;2024-01-06T01:23:44;58.92;;;27.70;;
31043;SDS011;17710;52.520;13.352;2024-01-06T01:26:10;58.95;;;27.45;;
31043;SDS011;17710;52.520;13.352;2024-01-06T01:28:39;57.75;;;28.35;;
31043;SDS011;17710;52.520;13.352;2024-01-06T01:31:05;53.20;;;25.90;;
31043;SDS011;17710;52.520;13.352;2024-01-06T01:33:33;57.78;;;25.58;;
31043;SDS011;17710;52.520;13.352;2024-01-06T01:35:59;56.20;;;25.50;;
31043;SDS011;17710;52.520;13.352;2024-01-06T01:38:25;58.22;;;26.38;;
31043;SDS011;17710;52.520;13.352;2024-01-06T01:40:52;56.10;;;25.92;;
31043;SDS011;17710;52.520;13.352;2024-01-06T01:43:18;60.42;;;27.42;;
31043;SDS011;17710;52.520;13.352;2024-01-06T01:45:47;59.05;;;27.00;;
31043;SDS011;17710;52.520;13.352;2024-01-06T01:48:16;55.50;;;26.80;;
31043;SDS011;17710;52.520;13.352;2024-01-06T01:50:43;50.97;;;26.13;;
31043;SDS011;17710;52.520;13.352;2024-01-06T01:53:10;56.72;;;26.63;;
31043;SDS011;17710;52.520;13.352;2024-01-06T01:55:36;53.60;;;25.52;;
31043;SDS011;17710;52.520;13.352;2024-01-06T01:58:03;53.83;;;24.65;;
31043;SDS011;17710;52.520;13.352;2024-01-06T02:00:31;55.47;;;25.98;;
31043;SDS011;17710;52.520;13.352;2024-01-06T02:02:59;64.60;;;26.20;;
31043;SDS011;17710;52.520;13.352;2024-01-06T02:05:25;57.35;;;25.42;;
31043;SDS011;17710;52.520;13.352;2024-01-06T02:07:52;55.22;;;25.75;;
31043;SDS011;17710;52.520;13.352;2024-01-06T02:10:18;55.58;;;23.95;;
31043;SDS011;17710;52.520;13.352;2024-01-06T02:12:45;53.40;;;25.60;;
31043;SDS011;17710;52.520;13.352;2024-01-06T02:15:11;58.22;;;25.55;;
31043;SDS011;17710;52.520;13.352;2024-01-06T02:17:38;57.13;;;25.60;;
31043;SDS011;17710;52.520;13.352;2024-01-06T02:20:06;56.30;;;25.35;;
31043;SDS011;17710;52.520;13.352;2024-01-06T02:22:36;55.20;;;24.38;;
31043;SDS011;17710;52.520;13.352;2024-01-06T02:25:04;48.67;;;24.17;;
31043;SDS011;17710;52.520;13.352;2024-01-06T02:27:37;51.78;;;24.25;;
31043;SDS011;17710;52.520;13.352;2024-01-06T02:30:04;48.25;;;24.23;;
31043;SDS011;17710;52.520;13.352;2024-01-06T02:32:31;59.50;;;25.05;;
31043;SDS011;17710;52.520;13.352;2024-01-06T02:34:58;52.70;;;23.83;;
31043;SDS011;17710;52.520;13.352;2024-01-06T02:37:24;51.80;;;24.50;;
31043;SDS011;17710;52.520;13.352;2024-01-06T02:39:52;59.97;;;27.10;;
31043;SDS011;17710;52.520;13.352;2024-01-06T02:42:18;55.55;;;24.88;;
31043;SDS011;17710;52.520;13.352;2024-01-06T02:44:45;56.63;;;25.30;;
31043;SDS011;17710;52.520;13.352;2024-01-06T02:47:11;55.28;;;23.65;;
31043;SDS011;17710;52.520;13.352;2024-01-06T02:49:38;54.33;;;24.33;;
31043;SDS011;17710;52.520;13.352;2024-01-06T02:52:04;57.80;;;25.25;;
31043;SDS011;17710;52.520;13.352;2024-01-06T02:54:31;56.63;;;23.15;;
31043;SDS011;17710;52.520;13.352;2024-01-06T02:56:59;54.30;;;24.33;;
31043;SDS011;17710;52.520;13.352;2024-01-06T02:59:25;56.30;;;24.25;;
31043;SDS011;17710;52.520;13.352;2024-01-06T03:01:51;52.17;;;23.90;;
31043;SDS011;17710;52.520;13.352;2024-01-06T03:04:18;54.28;;;24.10;;
31043;SDS011;17710;52.520;13.352;2024-01-06T03:06:44;48.15;;;22.70;;
31043;SDS011;17710;52.520;13.352;2024-01-06T03:09:16;61.55;;;25.08;;
31043;SDS011;17710;52.520;13.352;2024-01-06T03:11:44;53.72;;;23.63;;
31043;SDS011;17710;52.520;13.352;2024-01-06T03:14:11;52.58;;;24.20;;
31043;SDS011;17710;52.520;13.352;2024-01-06T03:16:38;51.40;;;23.77;;
31043;SDS011;17710;52.520;13.352;2024-01-06T03:19:04;51.80;;;25.17;;
31043;SDS011;17710;52.520;13.352;2024-01-06T03:21:30;56.60;;;24.73;;
31043;SDS011;17710;52.520;13.352;2024-01-06T03:23:57;58.70;;;26.15;;
31043;SDS011;17710;52.520;13.352;2024-01-06T03:26:23;54.85;;;25.02;;
31043;SDS011;17710;52.520;13.352;2024-01-06T03:28:49;59.05;;;24.83;;
31043;SDS011;17710;52.520;13.352;2024-01-06T03:31:17;55.53;;;24.92;;
31043;SDS011;17710;52.520;13.352;2024-01-06T03:33:44;56.85;;;24.20;;
31043;SDS011;17710;52.520;13.352;2024-01-06T03:36:12;59.38;;;25.98;;
31043;SDS011;17710;52.520;13.352;2024-01-06T03:38:38;54.33;;;23.98;;
31043;SDS011;17710;52.520;13.352;2024-01-06T03:41:05;53.35;;;24.83;;
31043;SDS011;17710;52.520;13.352;2024-01-06T03:43:31;58.75;;;24.55;;
31043;SDS011;17710;52.520;13.352;2024-01-06T03:45:57;57.58;;;24.15;;
31043;SDS011;17710;52.520;13.352;2024-01-06T03:48:26;57.15;;;26.00;;
31043;SDS011;17710;52.520;13.352;2024-01-06T03:50:52;57.03;;;25.23;;
31043;SDS011;17710;52.520;13.352;2024-01-06T03:53:19;58.55;;;25.00;;
31043;SDS011;17710;52.520;13.352;2024-01-06T03:55:46;59.22;;;25.42;;
31043;SDS011;17710;52.520;13.352;2024-01-06T03:58:12;60.33;;;25.05;;
31043;SDS011;17710;52.520;13.352;2024-01-06T04:00:39;65.38;;;27.33;;
31043;SDS011;17710;52.520;13.352;2024-01-06T04:03:05;56.40;;;24.83;;
31043;SDS011;17710;52.520;13.352;2024-01-06T04:05:33;60.35;;;26.40;;
31043;SDS011;17710;52.520;13.352;2024-01-06T04:08:00;59.90;;;25.17;;
31043;SDS011;17710;52.520;13.352;2024-01-06T04:10:26;60.50;;;26.33;;
31043;SDS011;17710;52.520;13.352;2024-01-06T04:12:52;55.42;;;25.10;;
31043;SDS011;17710;52.520;13.352;2024-01-06T04:15:19;61.05;;;26.10;;
31043;SDS011;17710;52.520;13.352;2024-01-06T04:17:46;60.85;;;25.92;;
31043;SDS011;17710;52.520;13.352;2024-01-06T04:20:14;59.55;;;26.02;;
31043;SDS011;17710;52.520;13.352;2024-01-06T04:22:42;58.58;;;25.67;;
31043;SDS011;17710;52.520;13.352;2024-01-06T04:25:09;55.42;;;25.58;;
31043;SDS011;17710;52.520;13.352;2024-01-06T04:27:36;58.58;;;26.10;;
31043;SDS011;17710;52.520;13.352;2024-01-06T04:30:02;63.83;;;26.92;;
31043;SDS011;17710;52.520;13.352;2024-01-06T04:32:29;59.63;;;26.50;;
31043;SDS011;17710;52.520;13.352;2024-01-06T04:34:56;54.00;;;26.00;;
31043;SDS011;17710;52.520;13.352;2024-01-06T04:37:22;59.72;;;26.35;;
31043;SDS011;17710;52.520;13.352;2024-01-06T04:39:50;55.65;;;25.65;;
31043;SDS011;17710;52.520;13.352;2024-01-06T04:42:16;55.33;;;25.45;;
31043;SDS011;17710;52.520;13.352;2024-01-06T04:44:44;67.85;;;28.23;;
31043;SDS011;17710;52.520;13.352;2024-01-06T04:47:11;60.00;;;26.83;;
31043;SDS011;17710;52.520;13.352;2024-01-06T04:49:37;60.92;;;27.45;;
31043;SDS011;17710;52.520;13.352;2024-01-06T04:52:03;55.50;;;25.77;;
31043;SDS011;17710;52.520;13.352;2024-01-06T04:54:30;62.63;;;27.63;;
31043;SDS011;17710;52.520;13.352;2024-01-06T04:56:59;63.67;;;27.98;;
31043;SDS011;17710;52.520;13.352;2024-01-06T04:59:25;64.07;;;27.23;;
31043;SDS011;17710;52.520;13.352;2024-01-06T05:01:51;62.25;;;26.55;;
31043;SDS011;17710;52.520;13.352;2024-01-06T05:04:19;59.90;;;26.77;;
31043;SDS011;17710;52.520;13.352;2024-01-06T05:06:45;64.75;;;27.17;;
31043;SDS011;17710;52.520;13.352;2024-01-06T05:09:12;65.43;;;25.90;;
31043;SDS011;17710;52.520;13.352;2024-01-06T05:11:38;64.90;;;27.88;;
31043;SDS011;17710;52.520;13.352;2024-01-06T05:14:06;60.28;;;26.65;;
31043;SDS011;17710;52.520;13.352;2024-01-06T05:16:32;69.78;;;28.02;;
31043;SDS011;17710;52.520;13.352;2024-01-06T05:18:59;67.93;;;29.48;;
31043;SDS011;17710;52.520;13.352;2024-01-06T05:21:25;66.28;;;27.67;;
31043;SDS011;17710;52.520;13.352;2024-01-06T05:23:52;68.20;;;28.45;;
31043;SDS011;17710;52.520;13.352;2024-01-06T05:26:18;68.97;;;28.35;;
31043;SDS011;17710;52.520;13.352;2024-01-06T05:28:46;66.25;;;27.73;;
31043;SDS011;17710;52.520;13.352;2024-01-06T05:31:13;66.07;;;29.60;;
31043;SDS011;17710;52.520;13.352;2024-01-06T05:33:40;70.95;;;28.42;;
31043;SDS011;17710;52.520;13.352;2024-01-06T05:36:06;72.97;;;28.85;;
31043;SDS011;17710;52.520;13.352;2024-01-06T05:38:33;71.40;;;29.30;;
31043;SDS011;17710;52.520;13.352;2024-01-06T05:40:59;63.45;;;28.30;;
31043;SDS011;17710;52.520;13.352;2024-01-06T05:43:26;70.93;;;28.58;;
31043;SDS011;17710;52.520;13.352;2024-01-06T05:45:55;69.35;;;28.85;;
31043;SDS011;17710;52.520;13.352;2024-01-06T05:48:23;69.22;;;28.60;;
31043;SDS011;17710;52.520;13.352;2024-01-06T05:50:50;67.10;;;29.65;;
31043;SDS011;17710;52.520;13.352;2024-01-06T05:53:16;74.72;;;29.77;;
31043;SDS011;17710;52.520;13.352;2024-01-06T05:55:43;62.63;;;27.80;;
31043;SDS011;17710;52.520;13.352;2024-01-06T05:58:09;67.93;;;30.25;;
31043;SDS011;17710;52.520;13.352;2024-01-06T06:00:36;65.00;;;29.45;;
31043;SDS011;17710;52.520;13.352;2024-01-06T06:03:02;69.78;;;30.52;;
31043;SDS011;17710;52.520;13.352;2024-01-06T06:05:30;68.90;;;29.25;;
31043;SDS011;17710;52.520;13.352;2024-01-06T06:07:57;65.18;;;29.48;;
31043;SDS011;17710;52.520;13.352;2024-01-06T06:10:23;68.50;;;30.02;;
31043;SDS011;17710;52.520;13.352;2024-01-06T06:12:55;69.85;;;28.92;;
31043;SDS011;17710;52.520;13.352;2024-01-06T06:15:21;70.70;;;31.17;;
31043;SDS011;17710;52.520;13.352;2024-01-06T06:17:47;70.78;;;29.70;;
31043;SDS011;17710;52.520;13.352;2024-01-06T06:20:14;75.28;;;29.33;;
31043;SDS011;17710;52.520;13.352;2024-01-06T06:22:41;68.72;;;28.35;;
31043;SDS011;17710;52.520;13.352;2024-01-06T06:25:11;68.07;;;27.02;;
31043;SDS011;17710;52.520;13.352;2024-01-06T06:27:37;72.20;;;28.73;;
31043;SDS011;17710;52.520;13.352;2024-01-06T06:30:04;73.18;;;28.35;;
31043;SDS011;17710;52.520;13.352;2024-01-06T06:32:33;69.68;;;29.45;;
31043;SDS011;17710;52.520;13.352;2024-01-06T06:34:59;74.07;;;29.52;;
31043;SDS011;17710;52.520;13.352;2024-01-06T06:37:26;66.22;;;28.10;;
31043;SDS011;17710;52.520;13.352;2024-01-06T06:39:54;75.07;;;29.60;;
31043;SDS011;17710;52.520;13.352;2024-01-06T06:42:20;70.15;;;27.90;;
31043;SDS011;17710;52.520;13.352;2024-01-06T06:44:47;66.50;;;28.33;;
31043;SDS011;17710;52.520;13.352;2024-01-06T06:47:13;63.80;;;26.98;;
31043;SDS011;17710;52.520;13.352;2024-01-06T06:49:40;75.60;;;28.08;;
31043;SDS011;17710;52.520;13.352;2024-01-06T06:52:06;75.40;;;27.60;;
31043;SDS011;17710;52.520;13.352;2024-01-06T06:54:33;67.50;;;27.45;;
31043;SDS011;17710;52.520;13.352;2024-01-06T06:57:01;69.72;;;28.23;;
31043;SDS011;17710;52.520;13.352;2024-01-06T06:59:28;71.40;;;26.60;;
31043;SDS011;17710;52.520;13.352;2024-01-06T07:01:54;65.40;;;27.23;;
31043;SDS011;17710;52.520;13.352;2024-01-06T07:04:20;68.85;;;27.08;;
31043;SDS011;17710;52.520;13.352;2024-01-06T07:06:53;68.32;;;29.42;;
31043;SDS011;17710;52.520;13.352;2024-01-06T07:09:19;73.53;;;27.50;;
31043;SDS011;17710;52.520;13.352;2024-01-06T07:11:48;71.75;;;30.33;;
31043;SDS011;17710;52.520;13.352;2024-01-06T07:14:15;71.95;;;29.13;;
31043;SDS011;17710;52.520;13.352;2024-01-06T07:16:42;68.75;;;27.17;;
31043;SDS011;17710;52.520;13.352;2024-01-06T07:19:08;61.83;;;26.17;;
31043;SDS011;17710;52.520;13.352;2024-01-06T07:21:38;69.38;;;27.77;;
31043;SDS011;17710;52.520;13.352;2024-01-06T07:24:05;66.85;;;27.50;;
31043;SDS011;17710;52.520;13.352;2024-01-06T07:26:31;72.55;;;28.25;;
31043;SDS011;17710;52.520;13.352;2024-01-06T07:28:58;75.10;;;28.33;;
31043;SDS011;17710;52.520;13.352;2024-01-06T07:31:25;65.85;;;28.08;;
31043;SDS011;17710;52.520;13.352;2024-01-06T07:33:52;70.90;;;28.55;;
31043;SDS011;17710;52.520;13.352;2024-01-06T07:36:18;71.07;;;28.63;;
31043;SDS011;17710;52.520;13.352;2024-01-06T07:38:46;71.47;;;29.52;;
31043;SDS011;17710;52.520;13.352;2024-01-06T07:41:13;62.55;;;27.67;;
31043;SDS011;17710;52.520;13.352;2024-01-06T07:43:39;74.78;;;29.35;;
31043;SDS011;17710;52.520;13.352;2024-01-06T07:46:06;73.18;;;28.67;;
31043;SDS011;17710;52.520;13.352;2024-01-06T07:48:35;75.13;;;29.45;;
31043;SDS011;17710;52.520;13.352;2024-01-06T07:51:02;72.10;;;27.60;;
31043;SDS011;17710;52.520;13.352;2024-01-06T07:53:29;70.25;;;29.90;;
31043;SDS011;17710;52.520;13.352;2024-01-06T07:55:55;65.80;;;27.02;;
31043;SDS011;17710;52.520;13.352;2024-01-06T07:58:24;66.70;;;29.67;;
31043;SDS011;17710;52.520;13.352;2024-01-06T08:00:50;76.72;;;29.10;;
31043;SDS011;17710;52.520;13.352;2024-01-06T08:03:17;79.65;;;29.98;;
31043;SDS011;17710;52.520;13.352;2024-01-06T08:05:45;79.85;;;29.70;;
31043;SDS011;17710;52.520;13.352;2024-01-06T08:08:11;76.68;;;29.25;;
31043;SDS011;17710;52.520;13.352;2024-01-06T08:10:41;82.75;;;31.17;;
31043;SDS011;17710;52.520;13.352;2024-01-06T08:13:08;81.95;;;30.50;;
31043;SDS011;17710;52.520;13.352;2024-01-06T08:15:35;72.10;;;29.45;;
31043;SDS011;17710;52.520;13.352;2024-01-06T08:18:02;78.47;;;29.85;;
31043;SDS011;17710;52.520;13.352;2024-01-06T08:20:29;76.03;;;28.42;;
31043;SDS011;17710;52.520;13.352;2024-01-06T08:22:56;77.45;;;29.33;;
31043;SDS011;17710;52.520;13.352;2024-01-06T08:25:23;73.97;;;28.77;;
31043;SDS011;17710;52.520;13.352;2024-01-06T08:27:49;73.55;;;27.42;;
31043;SDS011;17710;52.520;13.352;2024-01-06T08:30:16;74.93;;;28.48;;
31043;SDS011;17710;52.520;13.352;2024-01-06T08:32:42;76.07;;;28.27;;
31043;SDS011;17710;52.520;13.352;2024-01-06T08:35:09;70.07;;;29.63;;
31043;SDS011;17710;52.520;13.352;2024-01-06T08:37:35;84.10;;;29.65;;
31043;SDS011;17710;52.520;13.352;2024-01-06T08:40:03;72.85;;;29.58;;
31043;SDS011;17710;52.520;13.352;2024-01-06T08:42:31;77.68;;;30.20;;
31043;SDS011;17710;52.520;13.352;2024-01-06T08:45:00;77.63;;;29.73;;
31043;SDS011;17710;52.520;13.352;2024-01-06T08:47:27;71.35;;;28.63;;
31043;SDS011;17710;52.520;13.352;2024-01-06T08:49:54;67.25;;;27.85;;
31043;SDS011;17710;52.520;13.352;2024-01-06T08:52:20;73.13;;;27.88;;
31043;SDS011;17710;52.520;13.352;2024-01-06T08:54:47;62.13;;;27.05;;
31043;SDS011;17710;52.520;13.352;2024-01-06T08:57:15;72.75;;;27.55;;
31043;SDS011;17710;52.520;13.352;2024-01-06T08:59:42;66.15;;;27.45;;
31043;SDS011;17710;52.520;13.352;2024-01-06T09:02:10;73.47;;;28.55;;
31043;SDS011;17710;52.520;13.352;2024-01-06T09:04:37;73.60;;;30.17;;
31043;SDS011;17710;52.520;13.352;2024-01-06T09:07:04;73.22;;;29.48;;
31043;SDS011;17710;52.520;13.352;2024-01-06T09:09:31;63.65;;;27.33;;
31043;SDS011;17710;52.520;13.352;2024-01-06T09:11:57;68.13;;;27.27;;
31043;SDS011;17710;52.520;13.352;2024-01-06T09:14:25;67.35;;;28.05;;
31043;SDS011;17710;52.520;13.352;2024-01-06T09:16:52;69.35;;;28.65;;
31043;SDS011;17710;52.520;13.352;2024-01-06T09:19:18;63.72;;;25.77;;
31043;SDS011;17710;52.520;13.352;2024-01-06T09:21:45;65.63;;;26.30;;
31043;SDS011;17710;52.520;13.352;2024-01-06T09:24:11;65.95;;;26.13;;
31043;SDS011;17710;52.520;13.352;2024-01-06T09:26:38;69.15;;;27.52;;
31043;SDS011;17710;52.520;13.352;2024-01-06T09:29:04;68.68;;;28.10;;
31043;SDS011;17710;52.520;13.352;2024-01-06T09:31:32;66.05;;;27.80;;
31043;SDS011;17710;52.520;13.352;2024-01-06T09:33:59;73.28;;;29.13;;
31043;SDS011;17710;52.520;13.352;2024-01-06T09:36:27;71.13;;;28.27;;
31043;SDS011;17710;52.520;13.352;2024-01-06T09:38:53;67.60;;;26.95;;
31043;SDS011;17710;52.520;13.352;2024-01-06T09:41:20;68.82;;;27.92;;
31043;SDS011;17710;52.520;13.352;2024-01-06T09:43:46;64.63;;;26.75;;
31043;SDS011;17710;52.520;13.352;2024-01-06T09:46:15;64.80;;;27.13;;
31043;SDS011;17710;52.520;13.352;2024-01-06T09:48:48;62.08;;;26.70;;
31043;SDS011;17710;52.520;13.352;2024-01-06T09:51:19;62.80;;;26.25;;
31043;SDS011;17710;52.520;13.352;2024-01-06T09:53:48;68.10;;;26.25;;
31043;SDS011;17710;52.520;13.352;2024-01-06T09:56:15;65.72;;;25.33;;
31043;SDS011;17710;52.520;13.352;2024-01-06T09:58:43;61.80;;;25.35;;
31043;SDS011;17710;52.520;13.352;2024-01-06T10:01:10;64.03;;;25.45;;
31043;SDS011;17710;52.520;13.352;2024-01-06T10:03:37;66.65;;;27.88;;
31043;SDS011;17710;52.520;13.352;2024-01-06T10:06:05;64.53;;;26.05;;
31043;SDS011;17710;52.520;13.352;2024-01-06T10:08:34;60.72;;;26.85;;
31043;SDS011;17710;52.520;13.352;2024-01-06T10:11:01;64.60;;;27.80;;
31043;SDS011;17710;52.520;13.352;2024-01-06T10:13:28;63.70;;;27.10;;
31043;SDS011;17710;52.520;13.352;2024-01-06T10:15:55;63.95;;;27.27;;
31043;SDS011;17710;52.520;13.352;2024-01-06T10:18:21;67.85;;;28.95;;
31043;SDS011;17710;52.520;13.352;2024-01-06T10:20:47;58.72;;;26.08;;
31043;SDS011;17710;52.520;13.352;2024-01-06T10:23:17;66.20;;;27.80;;
31043;SDS011;17710;52.520;13.352;2024-01-06T10:25:43;68.88;;;28.33;;
31043;SDS011;17710;52.520;13.352;2024-01-06T10:28:11;57.72;;;26.23;;
31043;SDS011;17710;52.520;13.352;2024-01-06T10:30:38;59.50;;;26.90;;
31043;SDS011;17710;52.520;13.352;2024-01-06T10:33:08;60.75;;;27.73;;
31043;SDS011;17710;52.520;13.352;2024-01-06T10:35:36;55.47;;;27.00;;
31043;SDS011;17710;52.520;13.352;2024-01-06T10:38:03;57.80;;;25.10;;
31043;SDS011;17710;52.520;13.352;2024-01-06T10:40:31;55.25;;;24.90;;
31043;SDS011;17710;52.520;13.352;2024-01-06T10:42:58;54.90;;;24.35;;
31043;SDS011;17710;52.520;13.352;2024-01-06T10:45:26;61.05;;;24.80;;
31043;SDS011;17710;52.520;13.352;2024-01-06T10:47:54;54.05;;;24.75;;
31043;SDS011;17710;52.520;13.352;2024-01-06T10:50:21;52.47;;;24.98;;
31043;SDS011;17710;52.520;13.352;2024-01-06T10:52:49;60.33;;;25.70;;
31043;SDS011;17710;52.520;13.352;2024-01-06T10:55:17;69.22;;;27.05;;
31043;SDS011;17710;52.520;13.352;2024-01-06T10:57:47;58.47;;;26.00;;
31043;SDS011;17710;52.520;13.352;2024-01-06T11:00:16;58.72;;;25.88;;
31043;SDS011;17710;52.520;13.352;2024-01-06T11:02:43;52.10;;;24.90;;
31043;SDS011;17710;52.520;13.352;2024-01-06T11:05:11;55.08;;;24.48;;
31043;SDS011;17710;52.520;13.352;2024-01-06T11:07:39;56.53;;;25.33;;
31043;SDS011;17710;52.520;13.352;2024-01-06T11:10:08;54.95;;;25.35;;
31043;SDS011;17710;52.520;13.352;2024-01-06T11:12:40;54.50;;;24.98;;
31043;SDS011;17710;52.520;13.352;2024-01-06T11:15:09;50.53;;;25.27;;
31043;SDS011;17710;52.520;13.352;2024-01-06T11:17:51;53.25;;;25.02;;
31043;SDS011;17710;52.520;13.352;2024-01-06T11:20:20;58.55;;;26.75;;
31043;SDS011;17710;52.520;13.352;2024-01-06T11:22:47;54.88;;;24.42;;
31043;SDS011;17710;52.520;13.352;2024-01-06T11:25:15;54.53;;;26.23;;
31043;SDS011;17710;52.520;13.352;2024-01-06T11:27:43;50.55;;;24.88;;
31043;SDS011;17710;52.520;13.352;2024-01-06T11:30:21;53.08;;;27.05;;
31043;SDS011;17710;52.520;13.352;2024-01-06T11:32:53;51.45;;;25.08;;
31043;SDS011;17710;52.520;13.352;2024-01-06T11:35:24;53.10;;;26.25;;
31043;SDS011;17710;52.520;13.352;2024-01-06T11:37:53;52.30;;;25.67;;
31043;SDS011;17710;52.520;13.352;2024-01-06T11:40:22;49.97;;;25.73;;
31043;SDS011;17710;52.520;13.352;2024-01-06T11:42:56;54.22;;;24.45;;
31043;SDS011;17710;52.520;13.352;2024-01-06T11:45:25;50.25;;;24.27;;
31043;SDS011;17710;52.520;13.352;2024-01-06T11:47:54;49.97;;;24.83;;
31043;SDS011;17710;52.520;13.352;2024-01-06T11:50:21;46.40;;;23.17;;
31043;SDS011;17710;52.520;13.352;2024-01-06T11:52:48;50.08;;;23.52;;
31043;SDS011;17710;52.520;13.352;2024-01-06T11:55:15;52.88;;;24.48;;
31043;SDS011;17710;52.520;13.352;2024-01-06T11:57:44;48.53;;;24.50;;
31043;SDS011;17710;52.520;13.352;2024-01-06T12:00:12;54.92;;;25.98;;
31043;SDS011;17710;52.520;13.352;2024-01-06T12:02:41;50.20;;;24.45;;
31043;SDS011;17710;52.520;13.352;2024-01-06T12:05:12;53.20;;;24.85;;
31043;SDS011;17710;52.520;13.352;2024-01-06T12:07:40;50.13;;;25.23;;
31043;SDS011;17710;52.520;13.352;2024-01-06T12:10:07;51.65;;;22.45;;
31043;SDS011;17710;52.520;13.352;2024-01-06T12:12:34;51.33;;;25.45;;
31043;SDS011;17710;52.520;13.352;2024-01-06T12:15:01;48.13;;;24.33;;
31043;SDS011;17710;52.520;13.352;2024-01-06T12:17:28;58.78;;;26.88;;
31043;SDS011;17710;52.520;13.352;2024-01-06T12:19:59;53.38;;;25.35;;
31043;SDS011;17710;52.520;13.352;2024-01-06T12:22:25;48.72;;;24.25;;
31043;SDS011;17710;52.520;13.352;2024-01-06T12:24:52;57.15;;;26.73;;
31043;SDS011;17710;52.520;13.352;2024-01-06T12:27:19;53.83;;;25.73;;
31043;SDS011;17710;52.520;13.352;2024-01-06T12:29:46;54.33;;;26.27;;
31043;SDS011;17710;52.520;13.352;2024-01-06T12:32:13;53.08;;;26.35;;
31043;SDS011;17710;52.520;13.352;2024-01-06T12:34:39;57.80;;;26.35;;
31043;SDS011;17710;52.520;13.352;2024-01-06T12:37:07;52.67;;;25.00;;
31043;SDS011;17710;52.520;13.352;2024-01-06T12:39:33;53.65;;;26.50;;
31043;SDS011;17710;52.520;13.352;2024-01-06T12:42:00;50.75;;;22.88;;
31043;SDS011;17710;52.520;13.352;2024-01-06T12:44:27;51.95;;;24.10;;
31043;SDS011;17710;52.520;13.352;2024-01-06T12:46:54;57.67;;;25.45;;
31043;SDS011;17710;52.520;13.352;2024-01-06T12:49:25;50.30;;;23.77;;
31043;SDS011;17710;52.520;13.352;2024-01-06T12:51:55;49.13;;;22.88;;
31043;SDS011;17710;52.520;13.352;2024-01-06T12:54:23;55.53;;;24.15;;
31043;SDS011;17710;52.520;13.352;2024-01-06T12:56:49;48.03;;;23.13;;
31043;SDS011;17710;52.520;13.352;2024-01-06T12:59:16;53.28;;;23.33;;
31043;SDS011;17710;52.520;13.352;2024-01-06T13:01:43;53.95;;;24.13;;
31043;SDS011;17710;52.520;13.352;2024-01-06T13:04:10;47.30;;;23.15;;
31043;SDS011;17710;52.520;13.352;2024-01-06T13:06:37;48.08;;;23.25;;
31043;SDS011;17710;52.520;13.352;2024-01-06T13:09:05;54.53;;;24.13;;
31043;SDS011;17710;52.520;13.352;2024-01-06T13:11:34;55.80;;;23.35;;
31043;SDS011;17710;52.520;13.352;2024-01-06T13:14:01;54.03;;;24.40;;
31043;SDS011;17710;52.520;13.352;2024-01-06T13:16:28;53.63;;;23.63;;
31043;SDS011;17710;52.520;13.352;2024-01-06T13:18:54;50.25;;;22.55;;
31043;SDS011;17710;52.520;13.352;2024-01-06T13:21:21;47.20;;;22.52;;
31043;SDS011;17710;52.520;13.352;2024-01-06T13:23:47;48.30;;;22.88;;
31043;SDS011;17710;52.520;13.352;2024-01-06T13:26:14;50.20;;;22.90;;
31043;SDS011;17710;52.520;13.352;2024-01-06T13:28:42;48.50;;;21.75;;
31043;SDS011;17710;52.520;13.352;2024-01-06T13:31:08;51.90;;;22.17;;
31043;SDS011;17710;52.520;13.352;2024-01-06T13:33:34;46.20;;;22.30;;
31043;SDS011;17710;52.520;13.352;2024-01-06T13:36:01;48.45;;;22.73;;
31043;SDS011;17710;52.520;13.352;2024-01-06T13:38:29;47.58;;;22.60;;
31043;SDS011;17710;52.520;13.352;2024-01-06T13:40:55;49.17;;;22.17;;
31043;SDS011;17710;52.520;13.352;2024-01-06T13:43:21;46.05;;;21.38;;
31043;SDS011;17710;52.520;13.352;2024-01-06T13:45:49;40.00;;;21.00;;
31043;SDS011;17710;52.520;13.352;2024-01-06T13:48:15;38.75;;;19.65;;
31043;SDS011;17710;52.520;13.352;2024-01-06T13:50:43;42.13;;;20.10;;
31043;SDS011;17710;52.520;13.352;2024-01-06T13:53:11;40.42;;;20.48;;
31043;SDS011;17710;52.520;13.352;2024-01-06T13:55:37;40.20;;;20.33;;
31043;SDS011;17710;52.520;13.352;2024-01-06T13:58:04;38.78;;;20.58;;
31043;SDS011;17710;52.520;13.352;2024-01-06T14:00:31;40.28;;;20.13;;
31043;SDS011;17710;52.520;13.352;2024-01-06T14:02:58;40.67;;;21.83;;
31043;SDS011;17710;52.520;13.352;2024-01-06T14:05:25;42.92;;;20.88;;
31043;SDS011;17710;52.520;13.352;2024-01-06T14:07:52;46.78;;;20.23;;